sensor_id;sensor_type;location;lat;lon;timestamp;pressure;altitude;pressure_sealevel;temperature;humidity
55263;BME280;41125;48.752;9.168;2023-05-17T00:00:53;97249.47;;;6.98;71.77
55263;BME280;41125;48.752;9.168;2023-05-17T00:04:02;97239.19;;;6.95;70.58
55263;BME280;41125;48.752;9.168;2023-05-17T00:05:07;97236.00;;;7.03;71.21
55263;BME280;41125;48.752;9.168;2023-05-17T00:06:54;97236.59;;;7.10;69.40
55263;BME280;41125;48.752;9.168;2023-05-17T00:08:00;97239.03;;;7.12;69.77
55263;BME280;41125;48.752;9.168;2023-05-17T00:09:10;97239.03;;;7.12;70.00
55263;BME280;41125;48.752;9.168;2023-05-17T00:10:11;97231.16;;;7.05;69.49
55263;BME280;41125;48.752;9.168;2023-05-17T00:10:44;97233.09;;;7.10;69.67
55263;BME280;41125;48.752;9.168;2023-05-17T00:12:13;97232.25;;;7.04;69.34
55263;BME280;41125;48.752;9.168;2023-05-17T00:12:52;97234.44;;;7.12;69.67
55263;BME280;41125;48.752;9.168;2023-05-17T00:13:28;97242.25;;;7.09;69.65
55263;BME280;41125;48.752;9.168;2023-05-17T00:14:11;97242.53;;;7.07;70.02
55263;BME280;41125;48.752;9.168;2023-05-17T00:14:47;97241.44;;;7.08;70.39
55263;BME280;41125;48.752;9.168;2023-05-17T00:15:20;97242.75;;;7.00;70.69
55263;BME280;41125;48.752;9.168;2023-05-17T00:15:51;97244.38;;;7.01;70.83
55263;BME280;41125;48.752;9.168;2023-05-17T00:16:24;97239.75;;;6.92;71.61
55263;BME280;41125;48.752;9.168;2023-05-17T00:16:55;97255.38;;;6.95;71.93
55263;BME280;41125;48.752;9.168;2023-05-17T00:17:35;97246.44;;;6.84;72.62
55263;BME280;41125;48.752;9.168;2023-05-17T00:18:12;97246.44;;;6.84;72.37
55263;BME280;41125;48.752;9.168;2023-05-17T00:18:45;97255.34;;;6.85;72.29
55263;BME280;41125;48.752;9.168;2023-05-17T00:19:16;97253.72;;;6.84;72.76
55263;BME280;41125;48.752;9.168;2023-05-17T00:19:47;97243.22;;;6.87;72.54
55263;BME280;41125;48.752;9.168;2023-05-17T00:20:19;97249.47;;;6.93;71.55
55263;BME280;41125;48.752;9.168;2023-05-17T00:20:51;97245.16;;;6.92;70.69
55263;BME280;41125;48.752;9.168;2023-05-17T00:21:27;97245.41;;;6.95;70.54
55263;BME280;41125;48.752;9.168;2023-05-17T00:22:03;97251.34;;;6.92;71.17
55263;BME280;41125;48.752;9.168;2023-05-17T00:22:55;97258.09;;;6.90;71.90
55263;BME280;41125;48.752;9.168;2023-05-17T00:23:26;97252.62;;;6.80;72.83
55263;BME280;41125;48.752;9.168;2023-05-17T00:24:01;97242.94;;;6.84;72.51
55263;BME280;41125;48.752;9.168;2023-05-17T00:24:41;97251.28;;;6.82;72.97
55263;BME280;41125;48.752;9.168;2023-05-17T00:25:25;97259.34;;;6.77;73.63
55263;BME280;41125;48.752;9.168;2023-05-17T00:26:29;97254.97;;;6.71;73.34
55263;BME280;41125;48.752;9.168;2023-05-17T00:27:03;97230.09;;;6.64;71.91
55263;BME280;41125;48.752;9.168;2023-05-17T00:27:34;97246.62;;;6.72;71.92
55263;BME280;41125;48.752;9.168;2023-05-17T00:28:10;97252.53;;;6.69;71.75
55263;BME280;41125;48.752;9.168;2023-05-17T00:28:42;97246.84;;;6.66;72.21
55263;BME280;41125;48.752;9.168;2023-05-17T00:29:18;97250.31;;;6.61;72.84
55263;BME280;41125;48.752;9.168;2023-05-17T00:29:59;97256.50;;;6.62;74.02
55263;BME280;41125;48.752;9.168;2023-05-17T00:31:53;97252.94;;;6.51;73.33
55263;BME280;41125;48.752;9.168;2023-05-17T00:32:27;97255.94;;;6.55;73.80
55263;BME280;41125;48.752;9.168;2023-05-17T00:33:22;97254.53;;;6.47;73.77
55263;BME280;41125;48.752;9.168;2023-05-17T00:34:36;97258.81;;;6.43;74.33
55263;BME280;41125;48.752;9.168;2023-05-17T00:35:15;97268.56;;;6.49;74.53
55263;BME280;41125;48.752;9.168;2023-05-17T00:35:47;97271.25;;;6.49;74.92
55263;BME280;41125;48.752;9.168;2023-05-17T00:36:21;97262.56;;;6.42;74.75
55263;BME280;41125;48.752;9.168;2023-05-17T00:36:56;97279.87;;;6.46;75.48
55263;BME280;41125;48.752;9.168;2023-05-17T00:37:30;97266.34;;;6.41;75.35
55263;BME280;41125;48.752;9.168;2023-05-17T00:38:31;97269.59;;;6.43;76.08
55263;BME280;41125;48.752;9.168;2023-05-17T00:39:06;97270.63;;;6.37;76.47
55263;BME280;41125;48.752;9.168;2023-05-17T00:41:47;97273.88;;;6.39;75.66
55263;BME280;41125;48.752;9.168;2023-05-17T00:42:37;97270.09;;;6.40;75.00
55263;BME280;41125;48.752;9.168;2023-05-17T00:43:16;97265.53;;;6.41;74.95
55263;BME280;41125;48.752;9.168;2023-05-17T00:44:00;97271.72;;;6.41;74.84
55263;BME280;41125;48.752;9.168;2023-05-17T00:45:00;97270.66;;;6.42;75.24
55263;BME280;41125;48.752;9.168;2023-05-17T00:45:35;97275.50;;;6.40;76.43
55263;BME280;41125;48.752;9.168;2023-05-17T00:46:10;97264.41;;;6.36;75.95
55263;BME280;41125;48.752;9.168;2023-05-17T00:46:45;97261.00;;;6.46;75.35
55263;BME280;41125;48.752;9.168;2023-05-17T00:47:19;97257.69;;;6.39;73.89
55263;BME280;41125;48.752;9.168;2023-05-17T00:47:54;97262.56;;;6.42;73.99
55263;BME280;41125;48.752;9.168;2023-05-17T00:48:51;97263.19;;;6.49;74.75
55263;BME280;41125;48.752;9.168;2023-05-17T00:49:25;97266.94;;;6.48;74.80
55263;BME280;41125;48.752;9.168;2023-05-17T00:50:06;97272.63;;;6.52;74.43
55263;BME280;41125;48.752;9.168;2023-05-17T01:29:13;97292.12;;;6.05;78.79
55263;BME280;41125;48.752;9.168;2023-05-17T01:29:49;97293.50;;;6.08;77.73
55263;BME280;41125;48.752;9.168;2023-05-17T01:30:27;97280.56;;;6.04;77.41
55263;BME280;41125;48.752;9.168;2023-05-17T01:31:02;97285.50;;;6.13;77.19
55263;BME280;41125;48.752;9.168;2023-05-17T01:31:38;97292.50;;;6.14;76.23
55263;BME280;41125;48.752;9.168;2023-05-17T01:32:11;97288.75;;;6.15;76.19
55263;BME280;41125;48.752;9.168;2023-05-17T01:32:44;97294.69;;;6.17;76.20
55263;BME280;41125;48.752;9.168;2023-05-17T01:33:19;97292.00;;;6.17;76.55
55263;BME280;41125;48.752;9.168;2023-05-17T01:33:52;97283.88;;;6.12;76.63
55263;BME280;41125;48.752;9.168;2023-05-17T01:34:26;97296.31;;;6.18;77.22
55263;BME280;41125;48.752;9.168;2023-05-17T01:34:59;97292.56;;;6.19;77.17
55263;BME280;41125;48.752;9.168;2023-05-17T01:35:38;97295.75;;;6.16;77.44
55263;BME280;41125;48.752;9.168;2023-05-17T01:36:18;97299.00;;;6.18;77.05
55263;BME280;41125;48.752;9.168;2023-05-17T01:36:54;97292.00;;;6.17;77.55
55263;BME280;41125;48.752;9.168;2023-05-17T01:37:37;97281.16;;;6.12;77.77
55263;BME280;41125;48.752;9.168;2023-05-17T01:38:26;97295.25;;;6.19;77.60
55263;BME280;41125;48.752;9.168;2023-05-17T01:39:23;97290.13;;;6.17;77.65
55263;BME280;41125;48.752;9.168;2023-05-17T01:40:20;97293.69;;;6.23;77.45
55263;BME280;41125;48.752;9.168;2023-05-17T01:41:09;97290.97;;;6.23;77.45
55263;BME280;41125;48.752;9.168;2023-05-17T01:41:54;97292.06;;;6.27;76.45
55263;BME280;41125;48.752;9.168;2023-05-17T01:42:37;97297.47;;;6.27;75.50
55263;BME280;41125;48.752;9.168;2023-05-17T01:43:30;97293.69;;;6.23;75.98
55263;BME280;41125;48.752;9.168;2023-05-17T01:44:25;97289.88;;;6.19;77.06
55263;BME280;41125;48.752;9.168;2023-05-17T01:45:30;97294.69;;;6.17;77.72
55263;BME280;41125;48.752;9.168;2023-05-17T01:46:32;97283.81;;;6.07;78.17
55263;BME280;41125;48.752;9.168;2023-05-17T01:52:12;97295.03;;;5.98;78.63
55263;BME280;41125;48.752;9.168;2023-05-17T01:54:51;97302.56;;;5.96;79.24
55263;BME280;41125;48.752;9.168;2023-05-17T01:55:41;97299.78;;;5.91;79.65
55263;BME280;41125;48.752;9.168;2023-05-17T01:56:34;97301.31;;;5.82;78.93
55263;BME280;41125;48.752;9.168;2023-05-17T01:57:15;97297.53;;;5.83;79.36
55263;BME280;41125;48.752;9.168;2023-05-17T01:58:02;97297.53;;;5.83;79.59
55263;BME280;41125;48.752;9.168;2023-05-17T01:59:01;97285.34;;;5.76;80.00
55263;BME280;41125;48.752;9.168;2023-05-17T02:00:17;97301.00;;;5.79;80.74
55263;BME280;41125;48.752;9.168;2023-05-17T03:51:37;97348.84;;;4.44;89.35
55263;BME280;41125;48.752;9.168;2023-05-17T03:53:17;97361.69;;;4.42;89.06
55263;BME280;41125;48.752;9.168;2023-05-17T03:53:55;97365.91;;;4.38;88.95
55263;BME280;41125;48.752;9.168;2023-05-17T03:54:27;97360.78;;;4.36;89.63
55263;BME280;41125;48.752;9.168;2023-05-17T03:54:58;97365.59;;;4.34;89.71
55263;BME280;41125;48.752;9.168;2023-05-17T03:55:29;97361.50;;;4.32;90.38
55263;BME280;41125;48.752;9.168;2023-05-17T03:56:00;97366.06;;;4.31;91.16
55263;BME280;41125;48.752;9.168;2023-05-17T03:56:32;97360.94;;;4.30;91.35
55263;BME280;41125;48.752;9.168;2023-05-17T03:57:05;97359.88;;;4.31;91.28
55263;BME280;41125;48.752;9.168;2023-05-17T03:57:38;97363.13;;;4.33;91.35
55263;BME280;41125;48.752;9.168;2023-05-17T03:58:10;97362.66;;;4.36;91.00
55263;BME280;41125;48.752;9.168;2023-05-17T03:58:41;97358.44;;;4.40;90.93
55263;BME280;41125;48.752;9.168;2023-05-17T03:59:13;97360.88;;;4.42;90.53
55263;BME280;41125;48.752;9.168;2023-05-17T03:59:44;97361.94;;;4.41;90.62
55263;BME280;41125;48.752;9.168;2023-05-17T04:00:16;97360.06;;;4.41;90.60
55263;BME280;41125;48.752;9.168;2023-05-17T04:00:51;97361.44;;;4.44;90.66
55263;BME280;41125;48.752;9.168;2023-05-17T04:01:23;97366.34;;;4.47;90.38
55263;BME280;41125;48.752;9.168;2023-05-17T04:01:54;97361.53;;;4.49;90.51
55263;BME280;41125;48.752;9.168;2023-05-17T04:02:25;97362.38;;;4.49;90.22
55263;BME280;41125;48.752;9.168;2023-05-17T04:02:56;97358.03;;;4.48;89.89
55263;BME280;41125;48.752;9.168;2023-05-17T04:03:28;97362.38;;;4.49;89.83
55263;BME280;41125;48.752;9.168;2023-05-17T04:03:59;97358.63;;;4.50;89.96
55263;BME280;41125;48.752;9.168;2023-05-17T04:04:34;97361.03;;;4.52;89.56
55263;BME280;41125;48.752;9.168;2023-05-17T04:05:06;97367.22;;;4.52;89.51
55263;BME280;41125;48.752;9.168;2023-05-17T04:05:39;97361.84;;;4.52;89.55
55263;BME280;41125;48.752;9.168;2023-05-17T04:06:12;97365.09;;;4.54;89.65
55263;BME280;41125;48.752;9.168;2023-05-17T04:06:44;97358.09;;;4.53;89.52
55263;BME280;41125;48.752;9.168;2023-05-17T04:07:16;97369.66;;;4.54;89.67
55263;BME280;41125;48.752;9.168;2023-05-17T04:07:47;97361.84;;;4.52;89.22
55263;BME280;41125;48.752;9.168;2023-05-17T04:08:19;97369.09;;;4.52;90.05
55263;BME280;41125;48.752;9.168;2023-05-17T04:08:50;97368.56;;;4.50;89.67
55263;BME280;41125;48.752;9.168;2023-05-17T04:09:23;97363.41;;;4.48;89.89
55263;BME280;41125;48.752;9.168;2023-05-17T04:09:56;97368.22;;;4.46;90.78
55263;BME280;41125;48.752;9.168;2023-05-17T04:10:32;97362.84;;;4.46;91.10
55263;BME280;41125;48.752;9.168;2023-05-17T04:11:04;97367.66;;;4.44;90.59
55263;BME280;41125;48.752;9.168;2023-05-17T04:11:42;97368.69;;;4.43;90.44
55263;BME280;41125;48.752;9.168;2023-05-17T04:12:15;97370.81;;;4.41;90.24
55263;BME280;41125;48.752;9.168;2023-05-17T04:12:46;97369.41;;;4.38;91.26
55263;BME280;41125;48.752;9.168;2023-05-17T04:13:18;97371.28;;;4.38;92.16
55263;BME280;41125;48.752;9.168;2023-05-17T04:13:49;97370.25;;;4.39;92.40
55263;BME280;41125;48.752;9.168;2023-05-17T04:14:20;97375.84;;;4.37;92.57
55263;BME280;41125;48.752;9.168;2023-05-17T04:14:55;97377.72;;;4.37;92.41
55263;BME280;41125;48.752;9.168;2023-05-17T04:15:27;97372.09;;;4.38;92.83
55263;BME280;41125;48.752;9.168;2023-05-17T04:16:00;97381.56;;;4.41;92.71
55263;BME280;41125;48.752;9.168;2023-05-17T04:16:31;97381.06;;;4.44;92.45
55263;BME280;41125;48.752;9.168;2023-05-17T04:17:02;97380.50;;;4.42;92.56
55263;BME280;41125;48.752;9.168;2023-05-17T04:17:35;97375.72;;;4.44;92.27
55263;BME280;41125;48.752;9.168;2023-05-17T04:18:07;97380.03;;;4.45;91.73
55263;BME280;41125;48.752;9.168;2023-05-17T04:18:39;97380.59;;;4.47;91.30
55263;BME280;41125;48.752;9.168;2023-05-17T04:19:11;97385.16;;;4.47;91.69
55263;BME280;41125;48.752;9.168;2023-05-17T04:19:42;97384.34;;;4.46;91.91
55263;BME280;41125;48.752;9.168;2023-05-17T04:20:13;97380.59;;;4.47;91.72
55263;BME280;41125;48.752;9.168;2023-05-17T04:20:45;97377.91;;;4.47;91.59
55263;BME280;41125;48.752;9.168;2023-05-17T04:21:16;97373.13;;;4.49;91.74
55263;BME280;41125;48.752;9.168;2023-05-17T04:21:47;97375.53;;;4.51;91.19
55263;BME280;41125;48.752;9.168;2023-05-17T04:22:20;97390.88;;;4.50;91.88
55263;BME280;41125;48.752;9.168;2023-05-17T04:22:51;97382.81;;;4.50;91.46
55263;BME280;41125;48.752;9.168;2023-05-17T04:23:23;97381.72;;;4.51;91.30
55263;BME280;41125;48.752;9.168;2023-05-17T04:23:54;97387.66;;;4.53;91.47
55263;BME280;41125;48.752;9.168;2023-05-17T04:24:25;97386.59;;;4.54;91.44
55263;BME280;41125;48.752;9.168;2023-05-17T04:24:57;97384.50;;;4.56;91.41
55263;BME280;41125;48.752;9.168;2023-05-17T04:25:28;97391.50;;;4.57;91.35
55263;BME280;41125;48.752;9.168;2023-05-17T04:25:59;97384.00;;;4.59;91.37
55263;BME280;41125;48.752;9.168;2023-05-17T04:26:31;97388.09;;;4.62;91.02
55263;BME280;41125;48.752;9.168;2023-05-17T04:27:03;97384.59;;;4.61;90.28
55263;BME280;41125;48.752;9.168;2023-05-17T04:27:38;97390.53;;;4.63;90.90
55263;BME280;41125;48.752;9.168;2023-05-17T04:28:09;97384.09;;;4.64;91.04
55263;BME280;41125;48.752;9.168;2023-05-17T04:28:41;97385.75;;;4.65;91.32
55263;BME280;41125;48.752;9.168;2023-05-17T04:29:16;97394.63;;;4.66;91.42
55263;BME280;41125;48.752;9.168;2023-05-17T04:29:48;97394.63;;;4.66;91.86
55263;BME280;41125;48.752;9.168;2023-05-17T04:30:19;97389.25;;;4.66;91.70
55263;BME280;41125;48.752;9.168;2023-05-17T04:30:51;97393.81;;;4.65;92.04
55263;BME280;41125;48.752;9.168;2023-05-17T04:31:23;97393.56;;;4.67;92.14
55263;BME280;41125;48.752;9.168;2023-05-17T04:31:54;97397.62;;;4.69;92.49
55263;BME280;41125;48.752;9.168;2023-05-17T04:32:26;97402.78;;;4.71;92.32
55263;BME280;41125;48.752;9.168;2023-05-17T04:32:58;97401.47;;;4.74;92.59
55263;BME280;41125;48.752;9.168;2023-05-17T04:33:30;97403.59;;;4.71;92.23
55263;BME280;41125;48.752;9.168;2023-05-17T04:34:02;97401.72;;;4.72;91.95
55263;BME280;41125;48.752;9.168;2023-05-17T04:34:33;97402.28;;;4.74;91.68
55263;BME280;41125;48.752;9.168;2023-05-17T04:35:05;97411.16;;;4.75;91.51
55263;BME280;41125;48.752;9.168;2023-05-17T04:35:37;97403.09;;;4.75;91.60
55263;BME280;41125;48.752;9.168;2023-05-17T04:36:09;97408.00;;;4.78;91.53
55263;BME280;41125;48.752;9.168;2023-05-17T04:36:40;97400.75;;;4.78;91.54
55263;BME280;41125;48.752;9.168;2023-05-17T04:37:11;97401.56;;;4.79;91.49
55263;BME280;41125;48.752;9.168;2023-05-17T04:38:49;97398.88;;;4.79;91.52
55263;BME280;41125;48.752;9.168;2023-05-17T04:39:34;97397.25;;;4.78;91.59
55263;BME280;41125;48.752;9.168;2023-05-17T04:40:14;97406.22;;;4.83;91.43
55263;BME280;41125;48.752;9.168;2023-05-17T04:40:51;97402.97;;;4.81;91.01
55263;BME280;41125;48.752;9.168;2023-05-17T04:41:28;97399.34;;;4.76;90.92
55263;BME280;41125;48.752;9.168;2023-05-17T04:42:07;97405.97;;;4.85;91.22
55263;BME280;41125;48.752;9.168;2023-05-17T04:42:43;97397.91;;;4.85;89.83
55263;BME280;41125;48.752;9.168;2023-05-17T04:44:08;97391.53;;;4.91;87.81
55263;BME280;41125;48.752;9.168;2023-05-17T04:45:08;97414.28;;;5.00;88.36
55263;BME280;41125;48.752;9.168;2023-05-17T04:45:47;97410.28;;;5.02;88.83
55263;BME280;41125;48.752;9.168;2023-05-17T04:46:29;97410.84;;;5.04;88.96
55263;BME280;41125;48.752;9.168;2023-05-17T04:47:23;97407.69;;;5.08;89.00
55263;BME280;41125;48.752;9.168;2023-05-17T04:48:09;97413.38;;;5.11;88.62
55263;BME280;41125;48.752;9.168;2023-05-17T04:48:45;97407.75;;;5.13;88.26
55263;BME280;41125;48.752;9.168;2023-05-17T04:49:50;97407.53;;;5.14;87.45
55263;BME280;41125;48.752;9.168;2023-05-17T04:50:43;97400.50;;;5.13;86.48
55263;BME280;41125;48.752;9.168;2023-05-17T04:51:47;97410.28;;;5.19;87.10
55263;BME280;41125;48.752;9.168;2023-05-17T04:54:30;97407.50;;;5.31;85.97
55263;BME280;41125;48.752;9.168;2023-05-17T04:55:33;97406.81;;;5.41;85.67
55263;BME280;41125;48.752;9.168;2023-05-17T04:56:51;97405.09;;;5.51;84.74
55263;BME280;41125;48.752;9.168;2023-05-17T04:57:40;97413.19;;;5.51;84.33
55263;BME280;41125;48.752;9.168;2023-05-17T04:58:19;97413.22;;;5.56;84.50
55263;BME280;41125;48.752;9.168;2023-05-17T04:59:03;97404.03;;;5.52;84.93
55263;BME280;41125;48.752;9.168;2023-05-17T04:59:38;97414.28;;;5.55;84.36
55263;BME280;41125;48.752;9.168;2023-05-17T05:00:32;97417.06;;;5.60;84.53
55263;BME280;41125;48.752;9.168;2023-05-17T05:01:25;97423.75;;;5.58;83.81
55263;BME280;41125;48.752;9.168;2023-05-17T05:02:28;97418.19;;;5.64;83.78
55263;BME280;41125;48.752;9.168;2023-05-17T05:05:09;97420.62;;;5.66;83.22
55263;BME280;41125;48.752;9.168;2023-05-17T05:06:19;97419.50;;;5.62;83.37
55263;BME280;41125;48.752;9.168;2023-05-17T05:07:40;97422.59;;;5.70;83.37
55263;BME280;41125;48.752;9.168;2023-05-17T05:11:14;97420.78;;;5.76;83.39
55263;BME280;41125;48.752;9.168;2023-05-17T05:15:10;97429.44;;;5.78;82.68
55263;BME280;41125;48.752;9.168;2023-05-17T05:15:41;97432.37;;;5.77;82.09
55263;BME280;41125;48.752;9.168;2023-05-17T05:16:13;97431.00;;;5.74;82.26
55263;BME280;41125;48.752;9.168;2023-05-17T05:16:44;97431.56;;;5.76;83.05
55263;BME280;41125;48.752;9.168;2023-05-17T05:17:16;97431.56;;;5.76;83.33
55263;BME280;41125;48.752;9.168;2023-05-17T05:17:47;97434.00;;;5.78;83.47
55263;BME280;41125;48.752;9.168;2023-05-17T05:18:18;97429.44;;;5.78;83.37
55263;BME280;41125;48.752;9.168;2023-05-17T05:18:50;97432.69;;;5.80;82.98
55263;BME280;41125;48.752;9.168;2023-05-17T05:19:21;97439.72;;;5.81;83.02
55263;BME280;41125;48.752;9.168;2023-05-17T05:19:57;97434.31;;;5.81;83.01
55263;BME280;41125;48.752;9.168;2023-05-17T05:20:28;97436.19;;;5.81;82.97
55263;BME280;41125;48.752;9.168;2023-05-17T05:20:59;97430.81;;;5.81;82.97
55263;BME280;41125;48.752;9.168;2023-05-17T05:21:31;97434.31;;;5.81;83.00
55263;BME280;41125;48.752;9.168;2023-05-17T05:22:02;97439.72;;;5.81;82.92
55263;BME280;41125;48.752;9.168;2023-05-17T05:22:33;97443.97;;;5.77;82.52
55263;BME280;41125;48.752;9.168;2023-05-17T05:23:04;97434.81;;;5.78;82.81
55263;BME280;41125;48.752;9.168;2023-05-17T05:23:35;97434.31;;;5.81;82.97
55263;BME280;41125;48.752;9.168;2023-05-17T05:24:08;97437.59;;;5.83;82.26
55263;BME280;41125;48.752;9.168;2023-05-17T05:24:42;97446.22;;;5.85;81.80
55263;BME280;41125;48.752;9.168;2023-05-17T05:25:13;97445.41;;;5.85;81.97
55263;BME280;41125;48.752;9.168;2023-05-17T05:26:54;97446.88;;;5.92;82.17
55263;BME280;41125;48.752;9.168;2023-05-17T05:27:25;97441.81;;;5.96;82.26
55263;BME280;41125;48.752;9.168;2023-05-17T05:27:57;97443.19;;;5.98;82.02
55263;BME280;41125;48.752;9.168;2023-05-17T05:28:29;97448.63;;;6.03;82.02
55263;BME280;41125;48.752;9.168;2023-05-17T05:29:00;97444.38;;;6.08;81.94
55263;BME280;41125;48.752;9.168;2023-05-17T05:29:32;97435.25;;;6.09;81.07
55263;BME280;41125;48.752;9.168;2023-05-17T05:30:04;97441.44;;;6.09;80.37
55263;BME280;41125;48.752;9.168;2023-05-17T05:30:37;97443.31;;;6.09;80.49
55263;BME280;41125;48.752;9.168;2023-05-17T05:31:08;97449.53;;;6.09;80.44
55263;BME280;41125;48.752;9.168;2023-05-17T05:31:39;97450.34;;;6.10;80.55
55263;BME280;41125;48.752;9.168;2023-05-17T05:32:10;97448.78;;;6.14;80.67
55263;BME280;41125;48.752;9.168;2023-05-17T05:32:41;97437.50;;;6.17;80.42
55263;BME280;41125;48.752;9.168;2023-05-17T05:33:13;97445.34;;;6.18;80.39
55263;BME280;41125;48.752;9.168;2023-05-17T05:33:44;97446.97;;;6.19;80.45
55263;BME280;41125;48.752;9.168;2023-05-17T05:34:15;97439.72;;;6.25;80.59
55263;BME280;41125;48.752;9.168;2023-05-17T05:34:47;97450.00;;;6.28;80.02
55263;BME280;41125;48.752;9.168;2023-05-17T05:35:19;97447.06;;;6.29;79.99
55263;BME280;41125;48.752;9.168;2023-05-17T05:35:51;97447.87;;;6.30;80.28
55263;BME280;41125;48.752;9.168;2023-05-17T05:36:22;97447.87;;;6.30;79.52
55263;BME280;41125;48.752;9.168;2023-05-17T05:36:53;97447.06;;;6.29;79.08
55263;BME280;41125;48.752;9.168;2023-05-17T05:37:25;97446.25;;;6.29;79.30
55263;BME280;41125;48.752;9.168;2023-05-17T05:37:57;97446.25;;;6.29;79.79
55263;BME280;41125;48.752;9.168;2023-05-17T05:38:29;97448.69;;;6.30;79.81
55263;BME280;41125;48.752;9.168;2023-05-17T05:39:01;97444.12;;;6.31;79.73
55263;BME280;41125;48.752;9.168;2023-05-17T05:39:32;97453.84;;;6.32;80.31
55263;BME280;41125;48.752;9.168;2023-05-17T05:40:05;97448.50;;;6.37;80.63
55263;BME280;41125;48.752;9.168;2023-05-17T05:40:37;97453.13;;;6.42;79.84
55263;BME280;41125;48.752;9.168;2023-05-17T05:41:08;97450.19;;;6.43;79.39
55263;BME280;41125;48.752;9.168;2023-05-17T05:41:39;97450.19;;;6.43;79.29
55263;BME280;41125;48.752;9.168;2023-05-17T05:42:14;97447.50;;;6.43;79.30
55263;BME280;41125;48.752;9.168;2023-05-17T05:42:45;97452.88;;;6.43;79.03
55263;BME280;41125;48.752;9.168;2023-05-17T05:43:17;97445.69;;;6.49;79.31
55263;BME280;41125;48.752;9.168;2023-05-17T05:43:48;97448.13;;;6.50;79.17
55263;BME280;41125;48.752;9.168;2023-05-17T05:44:20;97444.34;;;6.51;79.15
55263;BME280;41125;48.752;9.168;2023-05-17T05:44:52;97450.56;;;6.52;78.62
55263;BME280;41125;48.752;9.168;2023-05-17T05:45:23;97450.00;;;6.50;78.46
55263;BME280;41125;48.752;9.168;2023-05-17T05:45:54;97454.03;;;6.47;79.08
55263;BME280;41125;48.752;9.168;2023-05-17T05:46:25;97453.72;;;6.44;79.85
55263;BME280;41125;48.752;9.168;2023-05-17T05:46:57;97455.59;;;6.43;79.70
55263;BME280;41125;48.752;9.168;2023-05-17T05:47:28;97453.38;;;6.40;79.43
55263;BME280;41125;48.752;9.168;2023-05-17T05:47:59;97453.38;;;6.40;79.47
55263;BME280;41125;48.752;9.168;2023-05-17T05:48:30;97457.16;;;6.39;79.25
55263;BME280;41125;48.752;9.168;2023-05-17T05:49:02;97456.34;;;6.38;80.40
55263;BME280;41125;48.752;9.168;2023-05-17T05:49:34;97450.94;;;6.38;80.12
55263;BME280;41125;48.752;9.168;2023-05-17T05:50:09;97451.75;;;6.39;79.95
55263;BME280;41125;48.752;9.168;2023-05-17T05:50:42;97455.84;;;6.42;79.50
55263;BME280;41125;48.752;9.168;2023-05-17T05:51:14;97458.28;;;6.43;79.23
55263;BME280;41125;48.752;9.168;2023-05-17T05:51:45;97462.59;;;6.44;79.77
55263;BME280;41125;48.752;9.168;2023-05-17T05:52:16;97459.91;;;6.44;79.62
55263;BME280;41125;48.752;9.168;2023-05-17T05:52:47;97459.91;;;6.44;79.57
55263;BME280;41125;48.752;9.168;2023-05-17T05:53:19;97459.91;;;6.44;78.97
55263;BME280;41125;48.752;9.168;2023-05-17T05:53:50;97459.91;;;6.44;78.77
55263;BME280;41125;48.752;9.168;2023-05-17T05:54:21;97464.50;;;6.44;78.48
55263;BME280;41125;48.752;9.168;2023-05-17T05:54:52;97462.84;;;6.43;79.12
55263;BME280;41125;48.752;9.168;2023-05-17T05:55:23;97456.66;;;6.42;80.33
55263;BME280;41125;48.752;9.168;2023-05-17T05:55:54;97462.03;;;6.42;80.65
55263;BME280;41125;48.752;9.168;2023-05-17T05:56:26;97468.50;;;6.41;80.52
55263;BME280;41125;48.752;9.168;2023-05-17T05:57:00;97462.03;;;6.42;81.02
55263;BME280;41125;48.752;9.168;2023-05-17T05:57:31;97470.69;;;6.44;80.33
55263;BME280;41125;48.752;9.168;2023-05-17T05:58:03;97468.00;;;6.44;79.82
55263;BME280;41125;48.752;9.168;2023-05-17T05:58:34;97468.81;;;6.45;79.69
55263;BME280;41125;48.752;9.168;2023-05-17T05:59:05;97466.94;;;6.45;79.96
55263;BME280;41125;48.752;9.168;2023-05-17T05:59:37;97470.19;;;6.47;79.60
55263;BME280;41125;48.752;9.168;2023-05-17T06:00:09;97462.66;;;6.49;79.71
55263;BME280;41125;48.752;9.168;2023-05-17T06:00:42;97468.06;;;6.49;79.40
55263;BME280;41125;48.752;9.168;2023-05-17T06:01:13;97469.69;;;6.50;79.27
55263;BME280;41125;48.752;9.168;2023-05-17T06:01:44;97466.75;;;6.52;79.09
55263;BME280;41125;48.752;9.168;2023-05-17T06:02:16;97470.00;;;6.54;79.41
55263;BME280;41125;48.752;9.168;2023-05-17T06:02:50;97466.50;;;6.53;78.62
55263;BME280;41125;48.752;9.168;2023-05-17T06:03:23;97471.88;;;6.53;78.69
55263;BME280;41125;48.752;9.168;2023-05-17T06:03:55;97475.66;;;6.52;78.63
55263;BME280;41125;48.752;9.168;2023-05-17T06:04:31;97470.00;;;6.54;78.47
55263;BME280;41125;48.752;9.168;2023-05-17T06:05:03;97478.94;;;6.59;78.60
55263;BME280;41125;48.752;9.168;2023-05-17T06:05:35;97478.44;;;6.62;78.15
55263;BME280;41125;48.752;9.168;2023-05-17T06:06:07;97476.81;;;6.61;77.97
55263;BME280;41125;48.752;9.168;2023-05-17T06:06:38;97476.81;;;6.61;78.19
55263;BME280;41125;48.752;9.168;2023-05-17T06:07:09;97473.84;;;6.63;78.24
55263;BME280;41125;48.752;9.168;2023-05-17T06:07:43;97473.84;;;6.63;78.54
55263;BME280;41125;48.752;9.168;2023-05-17T06:08:15;97468.97;;;6.60;77.81
55263;BME280;41125;48.752;9.168;2023-05-17T06:08:46;97480.53;;;6.55;77.78
55263;BME280;41125;48.752;9.168;2023-05-17T06:09:17;97476.72;;;6.51;78.84
55263;BME280;41125;48.752;9.168;2023-05-17T06:09:48;97482.09;;;6.51;78.81
55263;BME280;41125;48.752;9.168;2023-05-17T06:10:19;97474.00;;;6.51;78.78
55263;BME280;41125;48.752;9.168;2023-05-17T06:10:54;97480.47;;;6.50;78.36
55263;BME280;41125;48.752;9.168;2023-05-17T06:11:26;97485.87;;;6.50;78.87
55263;BME280;41125;48.752;9.168;2023-05-17T06:13:06;97483.72;;;6.52;78.94
55263;BME280;41125;48.752;9.168;2023-05-17T06:13:38;97486.50;;;6.57;79.39
55263;BME280;41125;48.752;9.168;2023-05-17T06:14:09;97480.03;;;6.58;79.06
55263;BME280;41125;48.752;9.168;2023-05-17T06:14:41;97485.47;;;6.63;78.97
55263;BME280;41125;48.752;9.168;2023-05-17T06:15:12;97483.88;;;6.67;79.06
55263;BME280;41125;48.752;9.168;2023-05-17T06:15:43;97487.16;;;6.69;78.61
55263;BME280;41125;48.752;9.168;2023-05-17T06:16:14;97483.63;;;6.69;78.73